sensor_id;sensor_type;location;lat;lon;timestamp;temperature;humidity
25949;DHT22;13961;51.178;4.448;2023-11-21T00:00:05;10.30;99.90
25949;DHT22;13961;51.178;4.448;2023-11-21T00:02:36;10.10;99.90
25949;DHT22;13961;51.178;4.448;2023-11-21T00:05:06;10.10;99.90
25949;DHT22;13961;51.178;4.448;2023-11-21T00:07:34;10.10;99.90
25949;DHT22;13961;51.178;4.448;2023-11-21T00:09:59;10.20;99.90
25949;DHT22;13961;51.178;4.448;2023-11-21T00:12:25;10.00;99.90
25949;DHT22;13961;51.178;4.448;2023-11-21T00:14:50;10.00;99.90
25949;DHT22;13961;51.178;4.448;2023-11-21T00:17:16;9.90;99.90
25949;DHT22;13961;51.178;4.448;2023-11-21T00:19:44;10.10;99.90
25949;DHT22;13961;51.178;4.448;2023-11-21T00:22:10;10.00;99.90
25949;DHT22;13961;51.178;4.448;2023-11-21T00:24:36;10.20;99.90
25949;DHT22;13961;51.178;4.448;2023-11-21T00:27:01;10.20;99.90
25949;DHT22;13961;51.178;4.448;2023-11-21T00:29:27;10.20;99.90
25949;DHT22;13961;51.178;4.448;2023-11-21T00:31:52;10.10;99.90
25949;DHT22;13961;51.178;4.448;2023-11-21T00:34:19;10.10;99.90
25949;DHT22;13961;51.178;4.448;2023-11-21T00:36:45;10.10;99.90
25949;DHT22;13961;51.178;4.448;2023-11-21T00:39:10;10.30;99.90
25949;DHT22;13961;51.178;4.448;2023-11-21T00:41:37;10.20;99.90
25949;DHT22;13961;51.178;4.448;2023-11-21T00:44:03;10.30;99.90
25949;DHT22;13961;51.178;4.448;2023-11-21T00:46:29;10.20;99.90
25949;DHT22;13961;51.178;4.448;2023-11-21T00:48:55;10.00;99.90
25949;DHT22;13961;51.178;4.448;2023-11-21T00:51:22;10.10;99.90
25949;DHT22;13961;51.178;4.448;2023-11-21T00:53:47;10.30;99.90
25949;DHT22;13961;51.178;4.448;2023-11-21T00:56:13;10.20;99.90
25949;DHT22;13961;51.178;4.448;2023-11-21T00:58:40;10.40;99.90
25949;DHT22;13961;51.178;4.448;2023-11-21T01:01:13;10.20;99.90
25949;DHT22;13961;51.178;4.448;2023-11-21T01:03:39;10.10;99.90
25949;DHT22;13961;51.178;4.448;2023-11-21T01:06:05;10.20;99.90
25949;DHT22;13961;51.178;4.448;2023-11-21T01:08:33;10.20;99.90
25949;DHT22;13961;51.178;4.448;2023-11-21T01:11:00;10.20;99.90
25949;DHT22;13961;51.178;4.448;2023-11-21T01:13:26;10.40;99.90
25949;DHT22;13961;51.178;4.448;2023-11-21T01:15:55;10.20;99.90
25949;DHT22;13961;51.178;4.448;2023-11-21T01:18:22;10.30;99.90
25949;DHT22;13961;51.178;4.448;2023-11-21T01:20:51;10.30;99.90
25949;DHT22;13961;51.178;4.448;2023-11-21T01:23:18;10.20;99.90
25949;DHT22;13961;51.178;4.448;2023-11-21T01:25:43;10.30;99.90
25949;DHT22;13961;51.178;4.448;2023-11-21T01:28:09;10.20;99.90
25949;DHT22;13961;51.178;4.448;2023-11-21T01:30:35;10.30;99.90
25949;DHT22;13961;51.178;4.448;2023-11-21T01:33:01;10.40;99.90
25949;DHT22;13961;51.178;4.448;2023-11-21T01:35:27;10.50;99.90
25949;DHT22;13961;51.178;4.448;2023-11-21T01:37:53;10.50;99.90
25949;DHT22;13961;51.178;4.448;2023-11-21T01:40:18;10.70;99.90
25949;DHT22;13961;51.178;4.448;2023-11-21T01:42:44;10.80;99.90
25949;DHT22;13961;51.178;4.448;2023-11-21T01:45:12;10.50;99.90
25949;DHT22;13961;51.178;4.448;2023-11-21T01:47:38;10.60;99.90
25949;DHT22;13961;51.178;4.448;2023-11-21T01:50:09;10.50;99.90
25949;DHT22;13961;51.178;4.448;2023-11-21T01:52:38;10.40;99.90
25949;DHT22;13961;51.178;4.448;2023-11-21T01:55:06;10.40;99.90
25949;DHT22;13961;51.178;4.448;2023-11-21T01:57:31;10.50;99.90
25949;DHT22;13961;51.178;4.448;2023-11-21T01:59:58;10.50;99.90
25949;DHT22;13961;51.178;4.448;2023-11-21T02:02:28;10.50;99.90
25949;DHT22;13961;51.178;4.448;2023-11-21T02:04:54;10.50;99.90
25949;DHT22;13961;51.178;4.448;2023-11-21T02:07:19;10.60;99.90
25949;DHT22;13961;51.178;4.448;2023-11-21T02:09:45;10.80;99.90
25949;DHT22;13961;51.178;4.448;2023-11-21T02:12:10;10.70;99.90
25949;DHT22;13961;51.178;4.448;2023-11-21T02:14:36;10.80;99.90
25949;DHT22;13961;51.178;4.448;2023-11-21T02:17:02;10.80;99.90
25949;DHT22;13961;51.178;4.448;2023-11-21T02:19:29;10.70;99.90
25949;DHT22;13961;51.178;4.448;2023-11-21T02:21:57;10.70;99.90
25949;DHT22;13961;51.178;4.448;2023-11-21T02:24:32;10.80;99.90
25949;DHT22;13961;51.178;4.448;2023-11-21T02:26:57;10.80;99.90
25949;DHT22;13961;51.178;4.448;2023-11-21T02:29:24;11.00;99.90
25949;DHT22;13961;51.178;4.448;2023-11-21T02:31:54;10.90;99.90
25949;DHT22;13961;51.178;4.448;2023-11-21T02:34:21;10.80;99.90
25949;DHT22;13961;51.178;4.448;2023-11-21T02:36:48;10.70;99.90
25949;DHT22;13961;51.178;4.448;2023-11-21T02:39:15;11.00;99.90
25949;DHT22;13961;51.178;4.448;2023-11-21T02:41:42;10.80;99.90
25949;DHT22;13961;51.178;4.448;2023-11-21T02:44:07;11.10;99.90
25949;DHT22;13961;51.178;4.448;2023-11-21T02:46:33;11.00;99.90
25949;DHT22;13961;51.178;4.448;2023-11-21T02:49:03;11.00;99.90
25949;DHT22;13961;51.178;4.448;2023-11-21T02:51:29;10.90;99.90
25949;DHT22;13961;51.178;4.448;2023-11-21T02:53:55;10.80;99.90
25949;DHT22;13961;51.178;4.448;2023-11-21T02:56:27;10.90;99.90
25949;DHT22;13961;51.178;4.448;2023-11-21T02:58:55;10.90;99.90
25949;DHT22;13961;51.178;4.448;2023-11-21T03:01:22;11.00;99.90
25949;DHT22;13961;51.178;4.448;2023-11-21T03:03:49;10.90;99.90
25949;DHT22;13961;51.178;4.448;2023-11-21T03:06:17;10.90;99.90
25949;DHT22;13961;51.178;4.448;2023-11-21T03:08:43;11.00;99.90
25949;DHT22;13961;51.178;4.448;2023-11-21T03:11:08;11.10;99.90
25949;DHT22;13961;51.178;4.448;2023-11-21T03:13:34;10.90;99.90
25949;DHT22;13961;51.178;4.448;2023-11-21T03:15:59;10.90;99.90
25949;DHT22;13961;51.178;4.448;2023-11-21T03:18:25;10.90;99.90
25949;DHT22;13961;51.178;4.448;2023-11-21T03:20:52;10.90;99.90
25949;DHT22;13961;51.178;4.448;2023-11-21T03:23:19;11.00;99.90
25949;DHT22;13961;51.178;4.448;2023-11-21T03:25:45;11.00;99.90
25949;DHT22;13961;51.178;4.448;2023-11-21T03:28:10;10.80;99.90
25949;DHT22;13961;51.178;4.448;2023-11-21T03:30:36;10.90;99.90
25949;DHT22;13961;51.178;4.448;2023-11-21T03:33:01;11.10;99.90
25949;DHT22;13961;51.178;4.448;2023-11-21T03:35:27;11.00;99.90
25949;DHT22;13961;51.178;4.448;2023-11-21T03:37:53;11.00;99.90
25949;DHT22;13961;51.178;4.448;2023-11-21T03:40:19;11.10;99.90
25949;DHT22;13961;51.178;4.448;2023-11-21T03:42:46;11.30;99.90
25949;DHT22;13961;51.178;4.448;2023-11-21T03:45:12;10.80;99.90
25949;DHT22;13961;51.178;4.448;2023-11-21T03:47:39;10.80;99.90
25949;DHT22;13961;51.178;4.448;2023-11-21T03:50:05;10.90;99.90
25949;DHT22;13961;51.178;4.448;2023-11-21T03:52:31;11.00;99.90
25949;DHT22;13961;51.178;4.448;2023-11-21T03:54:56;11.00;99.90
25949;DHT22;13961;51.178;4.448;2023-11-21T03:57:22;11.10;99.90
25949;DHT22;13961;51.178;4.448;2023-11-21T03:59:47;11.20;99.90
25949;DHT22;13961;51.178;4.448;2023-11-21T04:02:13;11.10;99.90
25949;DHT22;13961;51.178;4.448;2023-11-21T04:04:39;11.10;99.90
25949;DHT22;13961;51.178;4.448;2023-11-21T04:07:05;11.10;99.90
25949;DHT22;13961;51.178;4.448;2023-11-21T04:09:31;11.10;99.90
25949;DHT22;13961;51.178;4.448;2023-11-21T04:11:56;11.20;99.90
25949;DHT22;13961;51.178;4.448;2023-11-21T04:14:22;11.10;99.90
25949;DHT22;13961;51.178;4.448;2023-11-21T04:16:49;11.00;99.90
25949;DHT22;13961;51.178;4.448;2023-11-21T04:19:14;10.90;99.90
25949;DHT22;13961;51.178;4.448;2023-11-21T04:21:41;11.10;99.90
25949;DHT22;13961;51.178;4.448;2023-11-21T04:24:08;11.20;99.90
25949;DHT22;13961;51.178;4.448;2023-11-21T04:26:34;11.20;99.90
25949;DHT22;13961;51.178;4.448;2023-11-21T04:28:59;11.30;99.90
25949;DHT22;13961;51.178;4.448;2023-11-21T04:31:25;11.10;99.90
25949;DHT22;13961;51.178;4.448;2023-11-21T04:33:50;11.10;99.90
25949;DHT22;13961;51.178;4.448;2023-11-21T04:36:16;11.40;99.90
25949;DHT22;13961;51.178;4.448;2023-11-21T04:38:42;11.10;99.90
25949;DHT22;13961;51.178;4.448;2023-11-21T04:41:08;11.10;99.90
25949;DHT22;13961;51.178;4.448;2023-11-21T04:43:34;11.10;99.90
25949;DHT22;13961;51.178;4.448;2023-11-21T04:45:59;11.10;99.90
25949;DHT22;13961;51.178;4.448;2023-11-21T04:48:26;11.10;99.90
25949;DHT22;13961;51.178;4.448;2023-11-21T04:50:52;11.10;99.90
25949;DHT22;13961;51.178;4.448;2023-11-21T04:53:17;11.10;99.90
25949;DHT22;13961;51.178;4.448;2023-11-21T04:55:43;11.10;99.90
25949;DHT22;13961;51.178;4.448;2023-11-21T04:58:09;10.80;99.90
25949;DHT22;13961;51.178;4.448;2023-11-21T05:00:37;10.90;99.90
25949;DHT22;13961;51.178;4.448;2023-11-21T05:03:04;11.10;99.90
25949;DHT22;13961;51.178;4.448;2023-11-21T05:05:32;11.20;99.90
25949;DHT22;13961;51.178;4.448;2023-11-21T05:07:59;11.40;99.90
25949;DHT22;13961;51.178;4.448;2023-11-21T05:10:25;11.20;99.90
25949;DHT22;13961;51.178;4.448;2023-11-21T05:12:50;11.20;99.90
25949;DHT22;13961;51.178;4.448;2023-11-21T05:15:17;11.20;99.90
25949;DHT22;13961;51.178;4.448;2023-11-21T05:17:44;11.10;99.90
25949;DHT22;13961;51.178;4.448;2023-11-21T05:20:11;11.00;99.90
25949;DHT22;13961;51.178;4.448;2023-11-21T05:22:39;11.10;99.90
25949;DHT22;13961;51.178;4.448;2023-11-21T05:25:06;11.10;99.90
25949;DHT22;13961;51.178;4.448;2023-11-21T05:27:33;11.10;99.90
25949;DHT22;13961;51.178;4.448;2023-11-21T05:30:00;11.00;99.90
25949;DHT22;13961;51.178;4.448;2023-11-21T05:32:26;11.10;99.90
25949;DHT22;13961;51.178;4.448;2023-11-21T05:34:52;11.10;99.90
25949;DHT22;13961;51.178;4.448;2023-11-21T05:37:18;11.10;99.90
25949;DHT22;13961;51.178;4.448;2023-11-21T05:39:43;11.10;99.90
25949;DHT22;13961;51.178;4.448;2023-11-21T05:42:09;11.20;99.90
25949;DHT22;13961;51.178;4.448;2023-11-21T05:44:36;11.10;99.90
25949;DHT22;13961;51.178;4.448;2023-11-21T05:47:03;11.20;99.90
25949;DHT22;13961;51.178;4.448;2023-11-21T05:49:29;11.30;99.90
25949;DHT22;13961;51.178;4.448;2023-11-21T05:51:55;11.30;99.90
25949;DHT22;13961;51.178;4.448;2023-11-21T05:54:21;11.20;99.90
25949;DHT22;13961;51.178;4.448;2023-11-21T05:56:47;11.30;99.90
25949;DHT22;13961;51.178;4.448;2023-11-21T05:59:13;11.20;99.90
25949;DHT22;13961;51.178;4.448;2023-11-21T06:01:38;11.20;99.90
25949;DHT22;13961;51.178;4.448;2023-11-21T06:04:05;11.20;99.90
25949;DHT22;13961;51.178;4.448;2023-11-21T06:06:33;11.10;99.90
25949;DHT22;13961;51.178;4.448;2023-11-21T06:08:59;11.10;99.90
25949;DHT22;13961;51.178;4.448;2023-11-21T06:11:24;11.20;99.90
25949;DHT22;13961;51.178;4.448;2023-11-21T06:13:50;11.10;99.90
25949;DHT22;13961;51.178;4.448;2023-11-21T06:16:15;11.20;99.90
25949;DHT22;13961;51.178;4.448;2023-11-21T06:18:46;11.40;99.90
25949;DHT22;13961;51.178;4.448;2023-11-21T06:21:12;11.30;99.90
25949;DHT22;13961;51.178;4.448;2023-11-21T06:23:37;11.30;99.90
25949;DHT22;13961;51.178;4.448;2023-11-21T06:26:03;11.30;99.90
25949;DHT22;13961;51.178;4.448;2023-11-21T06:28:30;11.00;99.90
25949;DHT22;13961;51.178;4.448;2023-11-21T06:30:57;11.30;99.90
25949;DHT22;13961;51.178;4.448;2023-11-21T06:33:33;11.10;99.90
25949;DHT22;13961;51.178;4.448;2023-11-21T06:35:59;11.20;99.90
25949;DHT22;13961;51.178;4.448;2023-11-21T06:38:28;11.20;99.90
25949;DHT22;13961;51.178;4.448;2023-11-21T06:40:55;11.30;99.90
25949;DHT22;13961;51.178;4.448;2023-11-21T06:43:21;11.40;99.90
25949;DHT22;13961;51.178;4.448;2023-11-21T06:45:47;11.50;99.90
25949;DHT22;13961;51.178;4.448;2023-11-21T06:48:13;11.60;99.90
25949;DHT22;13961;51.178;4.448;2023-11-21T06:50:39;11.60;99.90
25949;DHT22;13961;51.178;4.448;2023-11-21T06:53:04;11.50;99.90
25949;DHT22;13961;51.178;4.448;2023-11-21T06:55:32;11.50;99.90
25949;DHT22;13961;51.178;4.448;2023-11-21T06:58:00;11.40;99.90
25949;DHT22;13961;51.178;4.448;2023-11-21T07:00:26;11.40;99.90
25949;DHT22;13961;51.178;4.448;2023-11-21T07:02:57;11.30;99.90
25949;DHT22;13961;51.178;4.448;2023-11-21T07:05:22;11.30;99.90
25949;DHT22;13961;51.178;4.448;2023-11-21T07:07:49;11.40;99.90
25949;DHT22;13961;51.178;4.448;2023-11-21T07:10:15;11.40;99.90
25949;DHT22;13961;51.178;4.448;2023-11-21T07:12:40;11.50;99.90
25949;DHT22;13961;51.178;4.448;2023-11-21T07:15:07;11.60;99.90
25949;DHT22;13961;51.178;4.448;2023-11-21T07:17:35;11.80;99.90
25949;DHT22;13961;51.178;4.448;2023-11-21T07:20:01;11.70;99.90
25949;DHT22;13961;51.178;4.448;2023-11-21T07:22:31;11.60;99.90
25949;DHT22;13961;51.178;4.448;2023-11-21T07:24:57;11.50;99.90
25949;DHT22;13961;51.178;4.448;2023-11-21T07:27:22;11.60;99.90
25949;DHT22;13961;51.178;4.448;2023-11-21T07:29:48;11.50;99.90
25949;DHT22;13961;51.178;4.448;2023-11-21T07:32:14;11.50;99.90
25949;DHT22;13961;51.178;4.448;2023-11-21T07:34:40;11.50;99.90
25949;DHT22;13961;51.178;4.448;2023-11-21T07:37:09;11.70;99.90
25949;DHT22;13961;51.178;4.448;2023-11-21T07:39:35;11.80;99.90
25949;DHT22;13961;51.178;4.448;2023-11-21T07:42:02;11.90;99.90
25949;DHT22;13961;51.178;4.448;2023-11-21T07:44:28;11.70;99.90
25949;DHT22;13961;51.178;4.448;2023-11-21T07:46:54;11.70;99.90
25949;DHT22;13961;51.178;4.448;2023-11-21T07:49:23;11.80;99.90
25949;DHT22;13961;51.178;4.448;2023-11-21T07:51:49;11.80;99.90
25949;DHT22;13961;51.178;4.448;2023-11-21T07:54:16;11.80;99.90
25949;DHT22;13961;51.178;4.448;2023-11-21T07:56:41;11.90;99.90
25949;DHT22;13961;51.178;4.448;2023-11-21T07:59:07;12.00;99.90
25949;DHT22;13961;51.178;4.448;2023-11-21T08:01:33;11.70;99.90
25949;DHT22;13961;51.178;4.448;2023-11-21T08:03:59;11.90;99.90
25949;DHT22;13961;51.178;4.448;2023-11-21T08:06:29;11.70;99.90
25949;DHT22;13961;51.178;4.448;2023-11-21T08:08:56;11.60;99.90
25949;DHT22;13961;51.178;4.448;2023-11-21T08:11:22;11.60;99.90
25949;DHT22;13961;51.178;4.448;2023-11-21T08:13:47;11.50;99.90
25949;DHT22;13961;51.178;4.448;2023-11-21T08:16:13;11.80;99.90
25949;DHT22;13961;51.178;4.448;2023-11-21T08:18:38;11.90;99.90
25949;DHT22;13961;51.178;4.448;2023-11-21T08:21:05;11.90;99.90
25949;DHT22;13961;51.178;4.448;2023-11-21T08:23:31;11.90;99.90
25949;DHT22;13961;51.178;4.448;2023-11-21T08:25:57;11.80;99.90
25949;DHT22;13961;51.178;4.448;2023-11-21T08:28:23;11.70;99.90
25949;DHT22;13961;51.178;4.448;2023-11-21T08:30:54;11.70;99.90
25949;DHT22;13961;51.178;4.448;2023-11-21T08:33:19;11.50;99.90
25949;DHT22;13961;51.178;4.448;2023-11-21T08:35:45;11.50;99.90
25949;DHT22;13961;51.178;4.448;2023-11-21T08:38:11;11.60;99.90
25949;DHT22;13961;51.178;4.448;2023-11-21T08:40:38;11.70;99.90
25949;DHT22;13961;51.178;4.448;2023-11-21T08:43:03;11.50;99.90
25949;DHT22;13961;51.178;4.448;2023-11-21T08:45:33;11.60;99.90
25949;DHT22;13961;51.178;4.448;2023-11-21T08:48:02;12.00;99.90
25949;DHT22;13961;51.178;4.448;2023-11-21T08:50:28;12.00;99.90
25949;DHT22;13961;51.178;4.448;2023-11-21T08:52:54;12.00;99.90
25949;DHT22;13961;51.178;4.448;2023-11-21T08:55:21;12.00;99.90
25949;DHT22;13961;51.178;4.448;2023-11-21T08:57:46;12.10;99.90
25949;DHT22;13961;51.178;4.448;2023-11-21T09:00:12;12.30;99.90
25949;DHT22;13961;51.178;4.448;2023-11-21T09:02:41;12.40;99.90
25949;DHT22;13961;51.178;4.448;2023-11-21T09:05:08;12.60;99.90
25949;DHT22;13961;51.178;4.448;2023-11-21T09:07:34;12.80;99.90
25949;DHT22;13961;51.178;4.448;2023-11-21T09:10:01;12.80;99.90
25949;DHT22;13961;51.178;4.448;2023-11-21T09:12:26;12.80;99.90
25949;DHT22;13961;51.178;4.448;2023-11-21T09:14:52;12.70;99.90
25949;DHT22;13961;51.178;4.448;2023-11-21T09:17:17;12.60;99.90
25949;DHT22;13961;51.178;4.448;2023-11-21T09:19:45;12.60;99.90
25949;DHT22;13961;51.178;4.448;2023-11-21T09:22:15;12.60;99.90
25949;DHT22;13961;51.178;4.448;2023-11-21T09:24:42;12.80;99.90
25949;DHT22;13961;51.178;4.448;2023-11-21T09:27:08;12.80;99.90
25949;DHT22;13961;51.178;4.448;2023-11-21T09:29:35;12.70;99.90
25949;DHT22;13961;51.178;4.448;2023-11-21T09:32:01;12.70;99.90
25949;DHT22;13961;51.178;4.448;2023-11-21T09:34:27;12.70;99.90
25949;DHT22;13961;51.178;4.448;2023-11-21T09:36:53;12.70;99.90
25949;DHT22;13961;51.178;4.448;2023-11-21T09:39:19;12.60;99.90
25949;DHT22;13961;51.178;4.448;2023-11-21T09:41:52;12.60;99.90
25949;DHT22;13961;51.178;4.448;2023-11-21T09:44:42;12.70;99.90
25949;DHT22;13961;51.178;4.448;2023-11-21T09:47:10;12.60;99.90
25949;DHT22;13961;51.178;4.448;2023-11-21T09:49:39;12.60;99.90
25949;DHT22;13961;51.178;4.448;2023-11-21T09:52:08;12.60;99.90
25949;DHT22;13961;51.178;4.448;2023-11-21T09:54:36;12.60;99.90
25949;DHT22;13961;51.178;4.448;2023-11-21T09:57:02;12.70;99.90
25949;DHT22;13961;51.178;4.448;2023-11-21T09:59:30;12.80;99.90
25949;DHT22;13961;51.178;4.448;2023-11-21T10:01:59;12.90;99.90
25949;DHT22;13961;51.178;4.448;2023-11-21T10:04:25;13.00;99.90
25949;DHT22;13961;51.178;4.448;2023-11-21T10:06:53;13.20;99.90
25949;DHT22;13961;51.178;4.448;2023-11-21T10:09:19;13.20;99.90
25949;DHT22;13961;51.178;4.448;2023-11-21T10:11:47;13.30;99.90
25949;DHT22;13961;51.178;4.448;2023-11-21T10:14:15;13.30;99.90
25949;DHT22;13961;51.178;4.448;2023-11-21T10:16:44;13.30;99.90
25949;DHT22;13961;51.178;4.448;2023-11-21T10:19:14;13.50;99.90
25949;DHT22;13961;51.178;4.448;2023-11-21T10:21:44;13.60;99.90
25949;DHT22;13961;51.178;4.448;2023-11-21T10:24:12;13.60;99.90
25949;DHT22;13961;51.178;4.448;2023-11-21T10:26:38;13.70;99.90
25949;DHT22;13961;51.178;4.448;2023-11-21T10:29:04;13.60;99.90
25949;DHT22;13961;51.178;4.448;2023-11-21T10:31:33;13.70;99.90
25949;DHT22;13961;51.178;4.448;2023-11-21T10:34:16;13.70;99.90
25949;DHT22;13961;51.178;4.448;2023-11-21T10:36:42;13.60;99.90
25949;DHT22;13961;51.178;4.448;2023-11-21T10:39:18;13.60;99.90
25949;DHT22;13961;51.178;4.448;2023-11-21T10:41:46;13.60;99.90
25949;DHT22;13961;51.178;4.448;2023-11-21T10:44:14;13.60;99.90
25949;DHT22;13961;51.178;4.448;2023-11-21T10:46:48;13.30;99.90
25949;DHT22;13961;51.178;4.448;2023-11-21T10:49:24;13.30;99.90
25949;DHT22;13961;51.178;4.448;2023-11-21T10:51:51;13.30;99.90
25949;DHT22;13961;51.178;4.448;2023-11-21T10:54:23;13.40;99.90
25949;DHT22;13961;51.178;4.448;2023-11-21T10:56:50;13.30;99.90
25949;DHT22;13961;51.178;4.448;2023-11-21T10:59:17;13.20;99.90
25949;DHT22;13961;51.178;4.448;2023-11-21T11:01:46;13.20;99.90
25949;DHT22;13961;51.178;4.448;2023-11-21T11:04:15;13.20;99.90
25949;DHT22;13961;51.178;4.448;2023-11-21T11:06:51;13.30;99.90
25949;DHT22;13961;51.178;4.448;2023-11-21T11:09:22;13.30;99.90
25949;DHT22;13961;51.178;4.448;2023-11-21T11:11:48;13.20;99.90
25949;DHT22;13961;51.178;4.448;2023-11-21T11:14:14;12.90;99.90
25949;DHT22;13961;51.178;4.448;2023-11-21T11:16:41;12.90;99.90
25949;DHT22;13961;51.178;4.448;2023-11-21T11:19:09;12.90;99.90
25949;DHT22;13961;51.178;4.448;2023-11-21T11:30:18;13.40;99.90
25949;DHT22;13961;51.178;4.448;2023-11-21T11:32:51;13.50;99.90
25949;DHT22;13961;51.178;4.448;2023-11-21T11:35:26;13.50;99.90
25949;DHT22;13961;51.178;4.448;2023-11-21T11:37:56;13.50;99.90
25949;DHT22;13961;51.178;4.448;2023-11-21T11:40:22;13.20;99.90
25949;DHT22;13961;51.178;4.448;2023-11-21T11:42:58;13.30;99.90
25949;DHT22;13961;51.178;4.448;2023-11-21T11:45:26;13.40;99.90
25949;DHT22;13961;51.178;4.448;2023-11-21T11:48:00;13.10;99.90
25949;DHT22;13961;51.178;4.448;2023-11-21T11:50:27;13.00;99.90
25949;DHT22;13961;51.178;4.448;2023-11-21T11:52:53;12.80;99.90
25949;DHT22;13961;51.178;4.448;2023-11-21T11:55:24;12.70;99.90
25949;DHT22;13961;51.178;4.448;2023-11-21T11:57:52;12.50;99.90
25949;DHT22;13961;51.178;4.448;2023-11-21T12:00:36;12.60;99.90
25949;DHT22;13961;51.178;4.448;2023-11-21T12:03:07;12.40;99.90
25949;DHT22;13961;51.178;4.448;2023-11-21T12:05:35;12.50;99.90
25949;DHT22;13961;51.178;4.448;2023-11-21T12:08:05;12.70;99.90
25949;DHT22;13961;51.178;4.448;2023-11-21T12:10:32;12.80;99.90
25949;DHT22;13961;51.178;4.448;2023-11-21T12:13:01;12.80;99.90
25949;DHT22;13961;51.178;4.448;2023-11-21T12:15:27;12.70;99.90
25949;DHT22;13961;51.178;4.448;2023-11-21T12:17:56;12.80;99.90
25949;DHT22;13961;51.178;4.448;2023-11-21T12:20:23;13.00;99.90
25949;DHT22;13961;51.178;4.448;2023-11-21T12:22:50;13.00;99.90
25949;DHT22;13961;51.178;4.448;2023-11-21T12:25:18;13.00;99.90
25949;DHT22;13961;51.178;4.448;2023-11-21T12:27:53;13.00;99.90
25949;DHT22;13961;51.178;4.448;2023-11-21T12:30:28;12.90;99.90
25949;DHT22;13961;51.178;4.448;2023-11-21T12:32:56;12.90;99.90
25949;DHT22;13961;51.178;4.448;2023-11-21T12:35:33;12.90;99.90
25949;DHT22;13961;51.178;4.448;2023-11-21T12:38:03;12.90;99.90
25949;DHT22;13961;51.178;4.448;2023-11-21T12:40:30;13.00;99.90
25949;DHT22;13961;51.178;4.448;2023-11-21T12:42:57;13.00;99.90
25949;DHT22;13961;51.178;4.448;2023-11-21T12:45:25;13.00;99.90
25949;DHT22;13961;51.178;4.448;2023-11-21T12:48:00;12.70;99.90
25949;DHT22;13961;51.178;4.448;2023-11-21T12:50:29;12.30;99.90
25949;DHT22;13961;51.178;4.448;2023-11-21T12:53:01;12.20;99.90
25949;DHT22;13961;51.178;4.448;2023-11-21T12:55:30;12.10;99.90
25949;DHT22;13961;51.178;4.448;2023-11-21T12:57:56;12.10;99.90
25949;DHT22;13961;51.178;4.448;2023-11-21T13:00:38;12.10;99.90
25949;DHT22;13961;51.178;4.448;2023-11-21T13:03:05;12.10;99.90
25949;DHT22;13961;51.178;4.448;2023-11-21T13:05:36;12.20;99.90
25949;DHT22;13961;51.178;4.448;2023-11-21T13:08:09;12.00;99.90
25949;DHT22;13961;51.178;4.448;2023-11-21T13:10:40;12.20;99.90
25949;DHT22;13961;51.178;4.448;2023-11-21T13:13:09;12.20;99.90
25949;DHT22;13961;51.178;4.448;2023-11-21T13:15:39;12.40;99.90
25949;DHT22;13961;51.178;4.448;2023-11-21T13:18:06;12.20;99.90
25949;DHT22;13961;51.178;4.448;2023-11-21T13:20:32;12.10;99.90
25949;DHT22;13961;51.178;4.448;2023-11-21T13:22:59;12.30;99.90
25949;DHT22;13961;51.178;4.448;2023-11-21T13:25:27;12.30;99.90
25949;DHT22;13961;51.178;4.448;2023-11-21T13:27:58;12.30;99.90
25949;DHT22;13961;51.178;4.448;2023-11-21T13:30:27;12.50;99.90
25949;DHT22;13961;51.178;4.448;2023-11-21T13:33:00;12.40;99.90
25949;DHT22;13961;51.178;4.448;2023-11-21T13:35:33;12.40;99.90
25949;DHT22;13961;51.178;4.448;2023-11-21T13:38:05;12.40;99.90
25949;DHT22;13961;51.178;4.448;2023-11-21T13:40:32;12.40;99.90
25949;DHT22;13961;51.178;4.448;2023-11-21T13:42:59;12.20;99.90
25949;DHT22;13961;51.178;4.448;2023-11-21T13:45:29;12.30;99.90
25949;DHT22;13961;51.178;4.448;2023-11-21T13:47:55;12.30;99.90
25949;DHT22;13961;51.178;4.448;2023-11-21T13:50:26;12.30;99.90
25949;DHT22;13961;51.178;4.448;2023-11-21T13:52:58;12.40;99.90
25949;DHT22;13961;51.178;4.448;2023-11-21T13:55:28;12.30;99.90
25949;DHT22;13961;51.178;4.448;2023-11-21T13:57:54;12.20;99.90
25949;DHT22;13961;51.178;4.448;2023-11-21T14:00:19;12.20;99.90
25949;DHT22;13961;51.178;4.448;2023-11-21T14:03:03;12.10;99.90
25949;DHT22;13961;51.178;4.448;2023-11-21T14:05:34;12.10;99.90
25949;DHT22;13961;51.178;4.448;2023-11-21T14:07:59;12.10;99.90
25949;DHT22;13961;51.178;4.448;2023-11-21T14:10:30;12.20;99.90
25949;DHT22;13961;51.178;4.448;2023-11-21T14:13:12;12.00;99.90
25949;DHT22;13961;51.178;4.448;2023-11-21T14:15:39;12.00;99.90
25949;DHT22;13961;51.178;4.448;2023-11-21T14:18:11;11.90;99.90
25949;DHT22;13961;51.178;4.448;2023-11-21T14:20:37;12.00;99.90
25949;DHT22;13961;51.178;4.448;2023-11-21T14:23:03;12.10;99.90
25949;DHT22;13961;51.178;4.448;2023-11-21T14:25:31;12.20;99.90
25949;DHT22;13961;51.178;4.448;2023-11-21T14:27:58;12.20;99.90
25949;DHT22;13961;51.178;4.448;2023-11-21T14:30:24;12.20;99.90
25949;DHT22;13961;51.178;4.448;2023-11-21T14:32:50;12.20;99.90
25949;DHT22;13961;51.178;4.448;2023-11-21T14:35:16;12.10;99.90
25949;DHT22;13961;51.178;4.448;2023-11-21T14:37:43;12.10;99.90
25949;DHT22;13961;51.178;4.448;2023-11-21T14:40:09;12.00;99.90
25949;DHT22;13961;51.178;4.448;2023-11-21T14:42:35;12.00;99.90
25949;DHT22;13961;51.178;4.448;2023-11-21T14:45:04;12.10;99.90
25949;DHT22;13961;51.178;4.448;2023-11-21T14:47:32;11.90;99.90
25949;DHT22;13961;51.178;4.448;2023-11-21T14:50:02;12.00;99.90
25949;DHT22;13961;51.178;4.448;2023-11-21T14:52:48;12.00;99.90
25949;DHT22;13961;51.178;4.448;2023-11-21T14:55:24;12.10;99.90
25949;DHT22;13961;51.178;4.448;2023-11-21T14:57:50;12.00;99.90
25949;DHT22;13961;51.178;4.448;2023-11-21T15:00:17;12.00;99.90
25949;DHT22;13961;51.178;4.448;2023-11-21T15:03:04;12.00;99.90
25949;DHT22;13961;51.178;4.448;2023-11-21T15:05:30;12.10;99.90
25949;DHT22;13961;51.178;4.448;2023-11-21T15:07:57;12.10;99.90
25949;DHT22;13961;51.178;4.448;2023-11-21T15:10:34;12.10;99.90
25949;DHT22;13961;51.178;4.448;2023-11-21T15:13:14;12.10;99.90
25949;DHT22;13961;51.178;4.448;2023-11-21T15:15:41;12.10;99.90
25949;DHT22;13961;51.178;4.448;2023-11-21T15:18:07;12.10;99.90
25949;DHT22;13961;51.178;4.448;2023-11-21T15:20:33;12.00;99.90
25949;DHT22;13961;51.178;4.448;2023-11-21T15:22:59;12.00;99.90
25949;DHT22;13961;51.178;4.448;2023-11-21T15:25:25;11.90;99.90
25949;DHT22;13961;51.178;4.448;2023-11-21T15:27:51;11.90;99.90
25949;DHT22;13961;51.178;4.448;2023-11-21T15:30:17;11.70;99.90
25949;DHT22;13961;51.178;4.448;2023-11-21T15:32:48;11.70;99.90
25949;DHT22;13961;51.178;4.448;2023-11-21T15:35:13;11.80;99.90
25949;DHT22;13961;51.178;4.448;2023-11-21T15:37:40;11.70;99.90
25949;DHT22;13961;51.178;4.448;2023-11-21T15:40:07;11.60;99.90